CheckWX is a tool to help pilots better visualize weather data.  It is not intended as a substitute for an official pre-flight weather briefing.

19:09:05 UTC

LYTV METAR
Tivat Airport
Tivat, Montenegro
Current

39 mins ago

LYTV 211830Z 06003KT 010V110 9999 FEW023 SCT040 OVC080 15/13 Q1015 NOSIG
Observed
May-21 @ 18:30 UTC
Wind
  • 060° at 3 KTS
Visibility
10,000+ meters
Flight Rules
VFR
Cloud Levels
  • Few at 2,300' AGL
  • Scattered at 4,000' AGL
  • Overcast at 8,000' AGL
Temperature
15°C / 59°F
Dewpoint
13°C / 55°F
Humidity
88%
Altimeter
29.97" Hg
Pressure
1014.92 hPa
Previous

1 hour ago

LYTV 211800Z 08003KT 360V160 9999 FEW020 SCT050 OVC080 16/12 Q1015 NOSIG
Observed
May-21 @ 18:00 UTC
Wind
  • 080° at 3 KTS
Visibility
10,000+ meters
Flight Rules
VFR
Cloud Levels
  • Few at 2,000' AGL
  • Scattered at 5,000' AGL
  • Overcast at 8,000' AGL
Temperature
16°C / 61°F
Dewpoint
12°C / 54°F
Humidity
77%
Altimeter
29.97" Hg
Pressure
1014.92 hPa
Previous

2 hours ago

LYTV 211730Z 08004KT 010V180 9999 -RA FEW020 SCT050 OVC080 16/13 Q1015 NOSIG
Observed
May-21 @ 17:30 UTC
Wind
  • 080° at 4 KTS
Visibility
10,000+ meters
Flight Rules
VFR
Conditions
Light Rain
Cloud Levels
  • Few at 2,000' AGL
  • Scattered at 5,000' AGL
  • Overcast at 8,000' AGL
Temperature
16°C / 61°F
Dewpoint
13°C / 55°F
Humidity
83%
Altimeter
29.97" Hg
Pressure
1014.92 hPa